createdAt,value
2023-05-23T00:02:13.556Z,16.24
2023-05-23T00:04:58.671Z,15.98
2023-05-23T00:07:42.993Z,15.95
2023-05-23T00:10:28.542Z,16.02
2023-05-23T00:13:14.756Z,15.83
2023-05-23T00:15:59.051Z,15.98
2023-05-23T00:18:43.292Z,15.85
2023-05-23T00:21:27.562Z,16.20
2023-05-23T00:24:11.752Z,15.92
2023-05-23T00:26:59.105Z,15.61
2023-05-23T00:29:43.030Z,15.81
2023-05-23T00:32:27.114Z,16.05
2023-05-23T00:35:11.270Z,16.08
2023-05-23T00:37:55.675Z,15.97
2023-05-23T00:40:39.815Z,15.85
2023-05-23T00:43:25.878Z,15.96
2023-05-23T00:46:11.630Z,16.01
2023-05-23T00:48:56.443Z,15.79
2023-05-23T00:51:42.432Z,15.96
2023-05-23T00:54:31.270Z,15.98
2023-05-23T00:57:15.223Z,16.22
2023-05-23T01:00:00.448Z,15.97
2023-05-23T01:02:47.360Z,16.14
2023-05-23T01:05:31.883Z,15.88
2023-05-23T01:08:16.688Z,15.75
2023-05-23T01:11:07.321Z,15.65
2023-05-23T01:13:58.353Z,15.92
2023-05-23T01:16:49.883Z,16.01
2023-05-23T01:19:50.673Z,16.00
2023-05-23T01:23:01.531Z,15.93
2023-05-23T01:26:05.588Z,15.96
2023-05-23T01:28:56.113Z,15.86
2023-05-23T01:31:45.320Z,15.75
2023-05-23T01:34:31.606Z,15.72
2023-05-23T01:37:18.832Z,15.83
2023-05-23T01:40:02.757Z,15.80
2023-05-23T01:42:49.042Z,15.77
2023-05-23T01:45:35.095Z,15.72
2023-05-23T01:48:20.505Z,15.73
2023-05-23T01:51:04.683Z,15.91
2023-05-23T01:53:48.952Z,15.74
2023-05-23T01:56:33.338Z,15.99
2023-05-23T01:59:18.350Z,15.89
2023-05-23T02:02:03.672Z,15.87
2023-05-23T02:04:47.589Z,15.89
2023-05-23T02:07:31.513Z,15.95
2023-05-23T02:10:15.555Z,16.12
2023-05-23T02:12:59.519Z,15.98
2023-05-23T02:15:46.077Z,16.28
2023-05-23T02:18:31.596Z,16.33
2023-05-23T02:21:15.473Z,16.13
2023-05-23T02:23:59.384Z,16.11
2023-05-23T02:26:43.408Z,16.04
2023-05-23T02:29:27.523Z,15.69
2023-05-23T02:32:11.811Z,15.72
2023-05-23T02:34:57.635Z,15.92
2023-05-23T02:37:41.902Z,15.91
2023-05-23T02:40:25.829Z,15.80
2023-05-23T02:43:09.811Z,16.02
2023-05-23T02:45:53.764Z,16.04
2023-05-23T02:48:37.760Z,15.81
2023-05-23T02:51:24.336Z,16.02
2023-05-23T02:54:08.353Z,15.91
2023-05-23T02:56:54.992Z,16.27
2023-05-23T02:59:39.646Z,15.79
2023-05-23T03:02:24.174Z,15.99
2023-05-23T03:05:09.360Z,15.97
2023-05-23T03:07:54.714Z,16.14
2023-05-23T03:10:38.763Z,16.38
2023-05-23T03:13:23.275Z,16.30
2023-05-23T03:16:07.661Z,16.29
2023-05-23T03:18:51.865Z,16.17
2023-05-23T03:21:36.383Z,16.20
2023-05-23T03:24:21.644Z,16.04
2023-05-23T03:27:07.151Z,16.30
2023-05-23T03:29:51.632Z,16.33
2023-05-23T03:32:36.124Z,16.19
2023-05-23T03:35:20.360Z,16.04
2023-05-23T03:38:04.267Z,16.12
2023-05-23T03:40:50.954Z,16.39
2023-05-23T03:43:34.932Z,16.28
2023-05-23T03:46:18.936Z,16.39
2023-05-23T03:49:03.531Z,16.38
2023-05-23T03:51:47.419Z,16.41
2023-05-23T03:54:33.470Z,16.30
2023-05-23T03:57:18.673Z,16.64
2023-05-23T04:00:02.507Z,16.42
2023-05-23T04:02:50.271Z,16.42
2023-05-23T04:05:35.818Z,16.50
2023-05-23T04:08:22.235Z,16.69
2023-05-23T04:11:08.016Z,16.73
2023-05-23T04:13:55.818Z,16.95
2023-05-23T04:16:42.006Z,16.73
2023-05-23T04:19:26.896Z,16.84
2023-05-23T04:22:10.936Z,16.86
2023-05-23T04:24:54.877Z,16.99
2023-05-23T04:27:40.698Z,17.12
2023-05-23T04:30:26.979Z,17.08
2023-05-23T04:33:11.897Z,17.28
2023-05-23T04:35:57.466Z,17.31
2023-05-23T04:38:41.989Z,17.31
2023-05-23T04:41:26.095Z,17.31
2023-05-23T04:44:30.544Z,17.37
2023-05-23T04:47:37.314Z,17.35
2023-05-23T04:50:26.273Z,17.86
2023-05-23T04:53:10.257Z,17.47
2023-05-23T04:55:55.348Z,17.78
2023-05-23T04:58:40.767Z,17.63
2023-05-23T05:01:26.620Z,17.81
2023-05-23T05:04:12.424Z,18.06
2023-05-23T05:06:57.459Z,17.48
2023-05-23T05:09:41.396Z,17.81
2023-05-23T05:12:27.845Z,17.82
2023-05-23T05:15:12.935Z,17.74
2023-05-23T05:17:59.009Z,17.73
2023-05-23T05:20:44.460Z,17.75
2023-05-23T05:23:29.643Z,17.77
2023-05-23T05:26:14.548Z,17.63
2023-05-23T05:28:58.943Z,17.83
2023-05-23T05:31:45.426Z,17.92
2023-05-23T05:34:29.885Z,17.81
2023-05-23T05:37:15.668Z,18.00
2023-05-23T05:40:06.372Z,18.36
2023-05-23T05:42:52.170Z,18.76
2023-05-23T05:45:36.124Z,19.10
2023-05-23T05:48:21.132Z,18.97
2023-05-23T05:51:05.953Z,18.68
2023-05-23T05:53:52.596Z,18.72
2023-05-23T05:56:37.256Z,19.07
2023-05-23T05:59:21.435Z,19.13
2023-05-23T06:02:05.683Z,19.28
2023-05-23T06:04:49.579Z,18.97
2023-05-23T06:07:33.686Z,19.60
2023-05-23T06:10:19.296Z,19.67
2023-05-23T06:13:04.535Z,18.95
2023-05-23T06:15:50.102Z,19.21
2023-05-23T06:18:34.508Z,20.22
2023-05-23T06:21:18.606Z,19.91
2023-05-23T06:24:06.788Z,19.85
2023-05-23T06:26:52.545Z,20.24
2023-05-23T06:29:37.050Z,19.03
2023-05-23T06:32:21.056Z,19.82
2023-05-23T06:35:05.446Z,20.03
2023-05-23T06:37:50.778Z,19.91
2023-05-23T06:40:35.819Z,20.01
2023-05-23T06:43:21.410Z,20.29
2023-05-23T06:46:09.620Z,20.25
2023-05-23T06:48:59.495Z,20.12
2023-05-23T06:51:52.534Z,20.14
2023-05-23T06:54:36.663Z,20.08
2023-05-23T06:57:20.961Z,20.31
2023-05-23T07:00:07.803Z,20.49
2023-05-23T07:03:01.193Z,20.47
2023-05-23T07:05:45.996Z,20.76
2023-05-23T07:08:32.349Z,20.96
2023-05-23T07:11:18.321Z,20.94
2023-05-23T07:14:08.675Z,20.28
2023-05-23T07:16:57.802Z,20.59
2023-05-23T07:19:41.868Z,20.53
2023-05-23T07:22:25.824Z,20.74
2023-05-23T07:25:10.594Z,21.02
2023-05-23T07:27:54.916Z,21.98
2023-05-23T07:30:39.799Z,22.67
2023-05-23T07:33:25.408Z,22.19
2023-05-23T07:36:13.625Z,21.73
2023-05-23T07:38:57.639Z,21.99
2023-05-23T07:41:41.660Z,21.86
2023-05-23T07:44:25.568Z,21.27
2023-05-23T07:47:10.938Z,21.42
2023-05-23T07:49:56.873Z,21.93
2023-05-23T07:52:41.420Z,21.48
2023-05-23T07:55:28.350Z,21.50
2023-05-23T07:58:12.509Z,21.43
2023-05-23T08:00:58.108Z,21.75
2023-05-23T08:04:01.875Z,21.74
2023-05-23T08:07:03.561Z,21.78
2023-05-23T08:10:03.139Z,21.87
2023-05-23T08:12:47.337Z,21.30
2023-05-23T08:15:35.949Z,21.03
2023-05-23T08:18:26.788Z,21.70
2023-05-23T08:21:10.809Z,22.05
2023-05-23T08:23:56.134Z,21.67
2023-05-23T08:26:40.300Z,21.23
2023-05-23T08:29:28.278Z,21.69
2023-05-23T08:32:12.583Z,21.67
2023-05-23T08:34:56.918Z,21.45
2023-05-23T08:37:42.125Z,21.47
2023-05-23T08:40:32.611Z,22.18
2023-05-23T08:43:29.342Z,21.97
2023-05-23T08:46:13.952Z,21.93
2023-05-23T08:49:01.266Z,22.09
2023-05-23T08:51:48.350Z,21.99
2023-05-23T08:54:37.480Z,22.61
2023-05-23T08:57:23.127Z,22.44
2023-05-23T09:00:15.175Z,22.60
2023-05-23T09:03:00.314Z,22.07
2023-05-23T09:05:59.010Z,22.17
2023-05-23T09:08:46.133Z,21.58
2023-05-23T09:11:36.144Z,21.61
2023-05-23T09:14:26.984Z,21.92
2023-05-23T09:17:19.358Z,22.30
2023-05-23T09:20:05.840Z,22.50
2023-05-23T09:22:59.323Z,22.62
2023-05-23T09:25:48.530Z,22.31
2023-05-23T09:28:34.813Z,22.14
2023-05-23T09:31:20.168Z,22.80
2023-05-23T09:34:05.111Z,22.40
2023-05-23T09:36:50.481Z,22.45
2023-05-23T09:39:38.922Z,22.21
2023-05-23T09:42:24.076Z,22.42
2023-05-23T09:45:08.944Z,23.09
2023-05-23T09:47:54.514Z,24.03
2023-05-23T09:50:38.708Z,23.08
2023-05-23T09:53:23.108Z,22.88
2023-05-23T09:56:08.790Z,23.22
2023-05-23T09:58:55.290Z,22.94
2023-05-23T10:01:39.543Z,22.50
2023-05-23T10:04:27.491Z,22.73
2023-05-23T10:07:18.156Z,23.12
2023-05-23T10:10:05.764Z,23.13
2023-05-23T10:12:52.870Z,22.88
2023-05-23T10:15:41.059Z,22.03
2023-05-23T10:18:30.543Z,22.05
2023-05-23T10:21:20.976Z,21.90
2023-05-23T10:24:05.513Z,21.64
2023-05-23T10:26:50.200Z,20.98
2023-05-23T10:29:35.559Z,20.83
2023-05-23T10:32:20.150Z,20.60
2023-05-23T10:35:12.293Z,20.25
2023-05-23T10:38:03.595Z,19.22
2023-05-23T10:40:55.634Z,19.07
2023-05-23T10:43:47.093Z,19.18
2023-05-23T10:46:52.864Z,18.97
2023-05-23T10:49:44.618Z,18.21
2023-05-23T10:52:29.268Z,17.82
2023-05-23T10:55:18.418Z,18.01
2023-05-23T10:58:12.941Z,18.29
2023-05-23T11:00:59.166Z,18.67
2023-05-23T11:03:54.769Z,19.66
2023-05-23T11:06:43.718Z,20.47
2023-05-23T11:09:28.091Z,20.96
2023-05-23T11:12:13.494Z,21.04
2023-05-23T11:14:57.487Z,21.29
2023-05-23T11:17:52.727Z,21.21
2023-05-23T11:20:39.196Z,20.87
2023-05-23T11:23:23.999Z,21.21
2023-05-23T11:26:31.124Z,21.05
2023-05-23T11:29:18.155Z,21.26
2023-05-23T11:32:02.115Z,20.89
2023-05-23T11:34:46.236Z,22.43
2023-05-23T11:37:30.693Z,21.96
2023-05-23T11:40:29.135Z,21.69
2023-05-23T11:43:15.249Z,22.25
2023-05-23T11:46:09.861Z,21.84
2023-05-23T11:48:55.107Z,22.10
2023-05-23T11:51:39.160Z,23.29
2023-05-23T11:54:24.899Z,23.29
2023-05-23T11:57:08.984Z,24.01
2023-05-23T11:59:53.261Z,24.12
2023-05-23T12:02:42.311Z,24.02
2023-05-23T12:05:26.279Z,24.62
2023-05-23T12:08:13.372Z,23.31
2023-05-23T12:11:00.515Z,23.07
2023-05-23T12:13:45.056Z,23.74
2023-05-23T12:16:30.070Z,24.02
2023-05-23T12:19:16.381Z,24.09
2023-05-23T12:22:07.477Z,23.80
2023-05-23T12:24:54.259Z,24.10
2023-05-23T12:27:38.842Z,24.54
2023-05-23T12:30:22.698Z,24.94
2023-05-23T12:33:09.840Z,24.65
2023-05-23T12:35:55.209Z,24.59
2023-05-23T12:38:40.975Z,23.12
2023-05-23T12:41:24.914Z,22.20
2023-05-23T12:44:08.797Z,22.39
2023-05-23T12:46:52.716Z,21.93
2023-05-23T12:49:37.269Z,21.93
2023-05-23T12:52:22.590Z,21.81
2023-05-23T12:55:07.376Z,21.63
2023-05-23T12:57:51.374Z,21.82
2023-05-23T13:00:35.313Z,22.27
2023-05-23T13:03:19.634Z,22.68
2023-05-23T13:06:04.237Z,22.69
2023-05-23T13:08:50.871Z,22.41
2023-05-23T13:11:34.942Z,22.63
2023-05-23T13:14:18.946Z,22.15
2023-05-23T13:17:02.802Z,22.16
2023-05-23T13:19:49.150Z,22.72
2023-05-23T13:22:33.450Z,22.54
2023-05-23T13:25:18.917Z,23.02
2023-05-23T13:28:04.157Z,22.76
2023-05-23T13:30:48.679Z,23.43
2023-05-23T13:33:32.952Z,23.55
2023-05-23T13:36:17.026Z,23.48
2023-05-23T13:39:01.319Z,24.10
2023-05-23T13:41:46.677Z,24.96
2023-05-23T13:44:30.606Z,24.70
2023-05-23T13:47:15.939Z,25.31
2023-05-23T13:50:00.136Z,24.59
2023-05-23T13:52:45.931Z,24.02
2023-05-23T13:55:31.671Z,24.71
2023-05-23T13:58:17.104Z,24.30
2023-05-23T14:01:01.079Z,24.20
2023-05-23T14:03:45.051Z,23.70
2023-05-23T14:06:29.137Z,23.99
2023-05-23T14:09:13.257Z,22.69
2023-05-23T14:11:57.334Z,22.51
2023-05-23T14:14:42.934Z,20.74
2023-05-23T14:17:27.458Z,20.43
2023-05-23T14:20:12.200Z,21.28
2023-05-23T14:22:56.361Z,21.96
2023-05-23T14:25:40.992Z,23.31
2023-05-23T14:28:25.231Z,23.55
2023-05-23T14:31:10.758Z,24.42
2023-05-23T14:33:56.150Z,24.70
2023-05-23T14:36:40.055Z,25.87
2023-05-23T14:39:25.673Z,26.53
2023-05-23T14:42:09.714Z,26.32
2023-05-23T14:44:54.200Z,26.15
2023-05-23T14:47:40.753Z,25.85
2023-05-23T14:50:24.729Z,26.00
2023-05-23T14:53:08.684Z,25.17
2023-05-23T14:55:52.641Z,25.06
2023-05-23T14:58:36.621Z,23.81
2023-05-23T15:01:20.652Z,22.83
2023-05-23T15:04:09.416Z,23.07
2023-05-23T15:06:53.868Z,21.86
2023-05-23T15:09:37.748Z,22.30
2023-05-23T15:12:21.672Z,22.43
2023-05-23T15:15:06.255Z,22.22
2023-05-23T15:17:53.303Z,21.61
2023-05-23T15:20:38.927Z,22.10
2023-05-23T15:23:22.923Z,22.50
2023-05-23T15:26:06.944Z,22.30
2023-05-23T15:28:50.992Z,22.12
2023-05-23T15:31:34.941Z,22.15
2023-05-23T15:34:18.991Z,23.30
2023-05-23T15:37:04.580Z,23.47
2023-05-23T15:39:48.851Z,22.91
2023-05-23T15:42:33.249Z,23.54
2023-05-23T15:45:17.622Z,23.28
2023-05-23T15:48:01.889Z,23.89
2023-05-23T15:50:46.243Z,24.35
2023-05-23T15:53:40.095Z,24.43
2023-05-23T15:56:32.565Z,23.87
2023-05-23T15:59:16.677Z,23.63
2023-05-23T16:02:01.476Z,22.80
2023-05-23T16:04:45.524Z,22.76
2023-05-23T16:07:29.472Z,21.86
2023-05-23T16:10:15.006Z,21.74
2023-05-23T16:12:58.917Z,21.91
2023-05-23T16:15:43.419Z,21.38
2023-05-23T16:18:27.668Z,21.31
2023-05-23T16:21:11.697Z,21.59
2023-05-23T16:23:55.521Z,21.36
2023-05-23T16:26:41.033Z,21.03
2023-05-23T16:29:24.981Z,21.45
2023-05-23T16:32:09.546Z,20.88
2023-05-23T16:34:54.779Z,20.98
2023-05-23T16:37:39.154Z,20.77
2023-05-23T16:40:23.146Z,20.75
2023-05-23T16:43:08.521Z,20.50
2023-05-23T16:45:52.481Z,20.21
2023-05-23T16:48:36.528Z,20.57
2023-05-23T16:51:20.506Z,20.81
2023-05-23T16:54:04.574Z,20.80
2023-05-23T16:56:48.496Z,20.50
2023-05-23T16:59:33.976Z,19.72
2023-05-23T17:02:18.170Z,20.05
2023-05-23T17:05:02.249Z,20.17
2023-05-23T17:07:48.260Z,19.99
2023-05-23T17:10:32.189Z,19.99
2023-05-23T17:13:16.096Z,20.00
2023-05-23T17:16:01.464Z,19.80
2023-05-23T17:18:45.799Z,19.83
2023-05-23T17:21:29.682Z,19.60
2023-05-23T17:24:14.157Z,19.62
2023-05-23T17:26:58.115Z,19.28
2023-05-23T17:29:42.209Z,19.13
2023-05-23T17:32:28.274Z,19.15
2023-05-23T17:35:12.201Z,18.85
2023-05-23T17:37:57.892Z,18.97
2023-05-23T17:40:42.262Z,19.13
2023-05-23T17:43:26.337Z,18.79
2023-05-23T17:46:10.361Z,18.48
2023-05-23T17:48:55.639Z,18.49
2023-05-23T17:51:39.524Z,18.26
2023-05-23T17:54:23.547Z,18.34
2023-05-23T17:57:07.721Z,18.46
2023-05-23T17:59:51.615Z,18.56
2023-05-23T18:02:35.621Z,18.53
2023-05-23T18:05:21.402Z,18.61
2023-05-23T18:08:05.556Z,18.31
2023-05-23T18:10:49.560Z,17.55
2023-05-23T18:13:33.433Z,17.37
2023-05-23T18:16:17.526Z,17.49
2023-05-23T18:19:01.599Z,17.17
2023-05-23T18:21:47.035Z,17.35
2023-05-23T18:24:31.026Z,17.08
2023-05-23T18:27:15.006Z,17.25
2023-05-23T18:29:58.984Z,17.36
2023-05-23T18:32:43.154Z,16.99
2023-05-23T18:35:27.061Z,16.99
2023-05-23T18:38:12.595Z,16.67
2023-05-23T18:40:56.863Z,17.02
2023-05-23T18:43:40.922Z,16.29
2023-05-23T18:46:25.825Z,16.46
2023-05-23T18:49:09.888Z,16.44
2023-05-23T18:51:54.560Z,16.30
2023-05-23T18:54:39.814Z,16.20
2023-05-23T18:57:23.830Z,16.11
2023-05-23T19:00:09.245Z,15.94
2023-05-23T19:02:53.371Z,15.66
2023-05-23T19:05:37.621Z,15.79
2023-05-23T19:08:21.687Z,15.54
2023-05-23T19:11:07.534Z,15.22
2023-05-23T19:13:51.478Z,15.61
2023-05-23T19:16:36.310Z,15.65
2023-05-23T19:19:20.739Z,15.36
2023-05-23T19:22:04.730Z,15.26
2023-05-23T19:24:48.638Z,15.40
2023-05-23T19:27:34.042Z,15.45
2023-05-23T19:30:17.888Z,15.38
2023-05-23T19:33:01.871Z,15.43
2023-05-23T19:35:45.764Z,15.40
2023-05-23T19:38:29.886Z,15.11
2023-05-23T19:41:13.859Z,15.02
2023-05-23T19:43:59.105Z,15.07
2023-05-23T19:46:43.111Z,15.18
2023-05-23T19:49:26.984Z,15.41
2023-05-23T19:52:10.832Z,15.46
2023-05-23T19:54:54.650Z,15.49
2023-05-23T19:57:38.899Z,15.07
2023-05-23T20:00:24.219Z,15.14
2023-05-23T20:03:08.505Z,15.39
2023-05-23T20:05:52.589Z,15.56
2023-05-23T20:08:36.461Z,15.70
2023-05-23T20:11:20.730Z,15.51
2023-05-23T20:14:04.666Z,15.48
2023-05-23T20:16:49.872Z,15.66
2023-05-23T20:19:33.879Z,15.92
2023-05-23T20:22:17.930Z,16.04
2023-05-23T20:25:01.916Z,15.83
2023-05-23T20:27:45.945Z,15.71
2023-05-23T20:30:30.744Z,15.71
2023-05-23T20:33:16.260Z,15.71
2023-05-23T20:36:00.119Z,15.62
2023-05-23T20:38:43.956Z,15.62
2023-05-23T20:41:29.536Z,15.15
2023-05-23T20:44:14.343Z,15.09
2023-05-23T20:46:58.326Z,15.03
2023-05-23T20:49:43.580Z,14.87
2023-05-23T20:52:27.812Z,14.94
2023-05-23T20:55:11.927Z,14.73
2023-05-23T20:57:56.176Z,14.59
2023-05-23T21:00:40.184Z,14.57
2023-05-23T21:03:24.373Z,14.72
2023-05-23T21:06:10.251Z,14.54
2023-05-23T21:08:54.011Z,14.59
2023-05-23T21:11:37.908Z,14.75
2023-05-23T21:14:21.858Z,14.28
2023-05-23T21:17:06.296Z,14.39
2023-05-23T21:19:50.402Z,14.33
2023-05-23T21:22:35.811Z,14.23
2023-05-23T21:25:19.890Z,14.04
2023-05-23T21:28:03.893Z,13.78
2023-05-23T21:30:47.851Z,13.87
2023-05-23T21:33:31.928Z,13.58
2023-05-23T21:36:15.947Z,13.78
2023-05-23T21:39:01.862Z,13.88
2023-05-23T21:41:45.899Z,13.69
2023-05-23T21:44:29.813Z,14.03
2023-05-23T21:47:13.624Z,14.20
2023-05-23T21:49:57.577Z,14.35
2023-05-23T21:52:41.559Z,14.32
2023-05-23T21:55:27.361Z,14.29
2023-05-23T21:58:11.264Z,14.54
2023-05-23T22:00:55.206Z,14.50
2023-05-23T22:03:39.279Z,14.47
2023-05-23T22:06:23.411Z,14.54
2023-05-23T22:09:10.212Z,14.79
2023-05-23T22:11:55.896Z,15.05
2023-05-23T22:14:39.884Z,14.82
2023-05-23T22:17:26.355Z,15.07
2023-05-23T22:20:14.648Z,15.00
2023-05-23T22:23:02.247Z,15.02
2023-05-23T22:25:46.111Z,15.49
2023-05-23T22:28:31.416Z,15.44
2023-05-23T22:31:15.751Z,15.16
2023-05-23T22:33:59.979Z,15.07
2023-05-23T22:36:43.971Z,14.91
2023-05-23T22:39:28.023Z,15.07
2023-05-23T22:42:12.077Z,14.85
2023-05-23T22:44:57.608Z,14.88
2023-05-23T22:47:41.801Z,14.83
2023-05-23T22:50:27.140Z,14.57
2023-05-23T22:53:11.678Z,14.78
2023-05-23T22:55:55.774Z,14.58
2023-05-23T22:58:39.737Z,14.38
2023-05-23T23:01:25.050Z,14.34
2023-05-23T23:04:09.082Z,14.23
2023-05-23T23:06:53.881Z,14.22
2023-05-23T23:09:37.754Z,14.31
2023-05-23T23:12:21.538Z,14.56
2023-05-23T23:15:06.128Z,14.34
2023-05-23T23:17:54.200Z,13.28
2023-05-23T23:20:39.030Z,14.18
2023-05-23T23:23:23.218Z,14.43
2023-05-23T23:26:07.241Z,14.28
2023-05-23T23:28:51.521Z,14.48
2023-05-23T23:31:35.399Z,14.83
2023-05-23T23:34:20.951Z,14.78
2023-05-23T23:37:04.944Z,14.84
2023-05-23T23:39:48.892Z,14.73
2023-05-23T23:42:32.696Z,14.57
2023-05-23T23:45:16.749Z,14.31
2023-05-23T23:48:00.878Z,14.44
2023-05-23T23:50:46.221Z,14.49
2023-05-23T23:53:30.203Z,14.69
2023-05-23T23:56:14.356Z,14.82
2023-05-23T23:58:58.349Z,14.91
